createdAt,value
2023-02-03T00:01:31.695Z,100.00
2023-02-03T00:03:33.188Z,100.00
2023-02-03T00:05:36.019Z,100.00
2023-02-03T00:07:39.175Z,100.00
2023-02-03T00:09:41.354Z,100.00
2023-02-03T00:11:42.850Z,100.00
2023-02-03T00:13:44.347Z,100.00
2023-02-03T00:15:46.017Z,100.00
2023-02-03T00:17:47.469Z,100.00
2023-02-03T00:19:50.112Z,100.00
2023-02-03T00:21:51.558Z,100.00
2023-02-03T00:23:54.699Z,100.00
2023-02-03T00:25:56.274Z,100.00
2023-02-03T00:27:57.957Z,100.00
2023-02-03T00:29:59.613Z,100.00
2023-02-03T00:32:01.272Z,100.00
2023-02-03T00:34:02.789Z,100.00
2023-02-03T00:36:06.056Z,100.00
2023-02-03T00:38:07.526Z,100.00
2023-02-03T00:40:09.626Z,100.00
2023-02-03T00:42:11.081Z,100.00
2023-02-03T00:44:12.569Z,100.00
2023-02-03T00:46:14.199Z,100.00
2023-02-03T00:48:15.737Z,100.00
2023-02-03T00:50:17.433Z,100.00
2023-02-03T00:52:19.002Z,100.00
2023-02-03T00:54:20.453Z,100.00
2023-02-03T00:56:21.924Z,100.00
2023-02-03T00:58:23.390Z,100.00
2023-02-03T01:00:25.117Z,100.00
2023-02-03T01:02:26.857Z,100.00
2023-02-03T01:04:28.616Z,100.00
2023-02-03T01:06:30.443Z,99.72
2023-02-03T01:08:32.237Z,100.00
2023-02-03T01:10:33.800Z,99.33
2023-02-03T01:12:35.278Z,99.02
2023-02-03T01:14:36.766Z,99.18
2023-02-03T01:16:38.776Z,98.25
2023-02-03T01:18:41.193Z,98.55
2023-02-03T01:20:42.728Z,98.84
2023-02-03T01:22:44.194Z,97.56
2023-02-03T01:24:45.853Z,98.03
2023-02-03T01:26:47.431Z,98.17
2023-02-03T01:28:54.435Z,97.39
2023-02-03T01:30:55.953Z,96.90
2023-02-03T01:32:57.541Z,97.55
2023-02-03T01:34:59.044Z,97.24
2023-02-03T01:37:00.548Z,96.96
2023-02-03T01:39:03.241Z,96.45
2023-02-03T01:41:08.076Z,96.90
2023-02-03T01:43:11.094Z,96.93
2023-02-03T01:45:13.719Z,96.67
2023-02-03T01:47:29.343Z,96.00
2023-02-03T01:49:36.690Z,95.88
2023-02-03T01:51:41.868Z,96.19
2023-02-03T01:53:44.506Z,96.32
2023-02-03T01:55:49.926Z,95.70
2023-02-03T01:57:58.527Z,95.73
2023-02-03T02:00:01.039Z,95.88
2023-02-03T02:02:05.038Z,96.33
2023-02-03T02:04:06.968Z,96.16
2023-02-03T02:06:10.703Z,96.16
2023-02-03T02:08:14.027Z,96.50
2023-02-03T02:10:15.774Z,96.21
2023-02-03T02:12:17.300Z,96.06
2023-02-03T02:14:19.335Z,95.84
2023-02-03T02:16:26.856Z,95.31
2023-02-03T02:18:47.954Z,95.77
2023-02-03T02:21:35.715Z,95.54
2023-02-03T02:23:55.320Z,94.95
2023-02-03T02:26:35.740Z,95.35
2023-02-03T02:28:55.856Z,95.15
2023-02-03T02:31:13.183Z,94.60
2023-02-03T02:33:23.398Z,94.01
2023-02-03T02:36:07.439Z,94.48
2023-02-03T02:38:35.747Z,93.69
2023-02-03T02:40:52.232Z,94.01
2023-02-03T02:43:06.428Z,94.10
2023-02-03T02:45:10.446Z,94.23
2023-02-03T02:47:19.573Z,93.78
2023-02-03T02:49:28.230Z,93.65
2023-02-03T02:51:32.307Z,93.06
2023-02-03T02:53:38.125Z,93.46
2023-02-03T02:55:42.131Z,92.97
2023-02-03T02:57:45.522Z,93.50
2023-02-03T02:59:48.001Z,93.21
2023-02-03T03:01:49.590Z,92.58
2023-02-03T03:03:52.148Z,92.05
2023-02-03T03:06:08.797Z,91.79
2023-02-03T03:08:14.245Z,91.76
2023-02-03T03:10:22.167Z,91.65
2023-02-03T03:12:32.560Z,92.00
2023-02-03T03:14:36.575Z,92.03
2023-02-03T03:16:43.111Z,91.79
2023-02-03T03:18:51.401Z,90.80
2023-02-03T03:20:56.057Z,91.25
2023-02-03T03:23:03.103Z,91.17
2023-02-03T03:25:13.730Z,90.68
2023-02-03T03:27:32.441Z,90.72
2023-02-03T03:29:38.219Z,90.48
2023-02-03T03:31:41.171Z,91.08
2023-02-03T03:33:43.003Z,90.66
2023-02-03T03:35:47.103Z,90.11
2023-02-03T03:38:00.037Z,89.96
2023-02-03T03:40:13.503Z,89.96
2023-02-03T03:42:28.778Z,90.03
2023-02-03T03:44:48.244Z,90.13
2023-02-03T03:46:51.998Z,90.46
2023-02-03T03:49:01.780Z,90.37
2023-02-03T03:51:09.751Z,89.92
2023-02-03T03:53:14.526Z,90.14
2023-02-03T03:55:19.435Z,90.40
2023-02-03T03:57:45.112Z,90.00
2023-02-03T03:59:49.568Z,90.08
2023-02-03T04:01:52.197Z,89.83
2023-02-03T04:04:00.099Z,89.72
2023-02-03T04:06:02.069Z,89.89
2023-02-03T04:08:03.788Z,90.52
2023-02-03T04:10:12.650Z,90.40
2023-02-03T04:12:21.361Z,89.84
2023-02-03T04:14:22.791Z,90.29
2023-02-03T04:16:24.254Z,91.01
2023-02-03T04:18:25.811Z,90.72
2023-02-03T04:20:31.439Z,90.31
2023-02-03T04:22:32.952Z,90.10
2023-02-03T04:24:34.426Z,90.32
2023-02-03T04:26:35.910Z,90.40
2023-02-03T04:28:37.381Z,90.43
2023-02-03T04:30:38.955Z,91.13
2023-02-03T04:32:40.898Z,91.88
2023-02-03T04:34:42.393Z,92.01
2023-02-03T04:36:43.917Z,91.96
2023-02-03T04:38:45.389Z,92.18
2023-02-03T04:40:46.895Z,92.38
2023-02-03T04:42:48.472Z,92.89
2023-02-03T04:44:50.303Z,92.33
2023-02-03T04:46:51.765Z,92.71
2023-02-03T04:48:53.272Z,93.31
2023-02-03T04:50:54.779Z,93.81
2023-02-03T04:52:56.278Z,93.65
2023-02-03T04:54:57.829Z,93.94
2023-02-03T04:56:59.282Z,93.55
2023-02-03T04:59:00.723Z,93.72
2023-02-03T05:01:08.303Z,93.10
2023-02-03T05:03:09.869Z,93.21
2023-02-03T05:05:11.328Z,92.13
2023-02-03T05:07:12.798Z,92.06
2023-02-03T05:09:14.801Z,91.22
2023-02-03T05:11:16.273Z,91.34
2023-02-03T05:13:17.742Z,91.06
2023-02-03T05:15:19.193Z,90.94
2023-02-03T05:17:20.674Z,90.07
2023-02-03T05:19:22.116Z,90.81
2023-02-03T05:21:23.577Z,90.65
2023-02-03T05:23:25.120Z,90.96
2023-02-03T05:25:26.809Z,91.24
2023-02-03T05:27:28.321Z,91.27
2023-02-03T05:29:29.813Z,90.98
2023-02-03T05:31:31.367Z,91.10
2023-02-03T05:33:32.850Z,91.41
2023-02-03T05:35:34.419Z,91.21
2023-02-03T05:37:35.925Z,91.50
2023-02-03T05:39:37.440Z,91.84
2023-02-03T05:41:55.904Z,91.80
2023-02-03T05:43:58.744Z,91.57
2023-02-03T05:46:07.624Z,91.55
2023-02-03T05:48:09.624Z,91.93
2023-02-03T05:50:11.133Z,92.51
2023-02-03T05:52:12.592Z,92.61
2023-02-03T05:54:14.131Z,92.19
2023-02-03T05:56:16.018Z,92.52
2023-02-03T05:58:17.513Z,92.73
2023-02-03T06:00:21.441Z,93.55
2023-02-03T06:02:22.915Z,94.45
2023-02-03T06:04:24.370Z,94.46
2023-02-03T06:06:27.222Z,94.58
2023-02-03T06:08:28.827Z,94.96
2023-02-03T06:10:30.418Z,96.46
2023-02-03T06:12:32.387Z,96.66
2023-02-03T06:14:33.927Z,97.27
2023-02-03T06:16:35.392Z,98.52
2023-02-03T06:18:36.854Z,99.22
2023-02-03T06:20:38.326Z,99.70
2023-02-03T06:22:39.926Z,100.00
2023-02-03T06:24:41.404Z,100.00
2023-02-03T06:26:42.839Z,100.00
2023-02-03T06:28:44.305Z,100.00
2023-02-03T06:30:45.898Z,100.00
2023-02-03T06:32:48.653Z,100.00
2023-02-03T06:34:50.114Z,100.00
2023-02-03T06:36:51.625Z,100.00
2023-02-03T06:38:53.120Z,100.00
2023-02-03T06:40:54.535Z,100.00
2023-02-03T06:42:55.993Z,100.00
2023-02-03T06:44:57.431Z,100.00
2023-02-03T06:46:59.197Z,100.00
2023-02-03T06:49:00.739Z,100.00
2023-02-03T06:51:02.193Z,100.00
2023-02-03T06:53:03.826Z,99.69
2023-02-03T06:55:06.544Z,99.54
2023-02-03T06:57:07.987Z,98.48
2023-02-03T06:59:10.187Z,97.53
2023-02-03T07:01:11.739Z,96.68
2023-02-03T07:03:13.256Z,95.66
2023-02-03T07:05:14.748Z,95.34
2023-02-03T07:07:16.603Z,94.58
2023-02-03T07:09:18.117Z,94.48
2023-02-03T07:11:19.566Z,94.28
2023-02-03T07:13:21.527Z,93.71
2023-02-03T07:15:22.967Z,93.64
2023-02-03T07:17:24.431Z,93.12
2023-02-03T07:19:25.985Z,93.62
2023-02-03T07:21:27.438Z,93.03
2023-02-03T07:23:28.890Z,92.96
2023-02-03T07:25:31.364Z,92.96
2023-02-03T07:27:32.859Z,92.08
2023-02-03T07:29:34.430Z,92.65
2023-02-03T07:31:36.222Z,91.99
2023-02-03T07:33:38.786Z,91.89
2023-02-03T07:35:40.235Z,92.18
2023-02-03T07:37:43.069Z,91.56
2023-02-03T07:39:46.047Z,91.55
2023-02-03T07:41:47.525Z,91.51
2023-02-03T07:43:49.025Z,91.51
2023-02-03T07:45:50.506Z,91.10
2023-02-03T07:47:51.974Z,91.10
2023-02-03T07:49:53.441Z,90.75
2023-02-03T07:51:56.475Z,91.32
2023-02-03T07:53:57.978Z,91.17
2023-02-03T07:56:03.685Z,91.30
2023-02-03T07:58:05.191Z,91.07
2023-02-03T08:00:07.170Z,91.79
2023-02-03T08:02:11.339Z,91.83
2023-02-03T08:04:16.467Z,91.56
2023-02-03T08:06:18.065Z,90.54
2023-02-03T08:08:19.524Z,90.84
2023-02-03T08:10:21.012Z,90.54
2023-02-03T08:12:22.460Z,90.76
2023-02-03T08:14:24.025Z,90.57
2023-02-03T08:16:25.584Z,90.49
2023-02-03T08:18:27.083Z,89.85
2023-02-03T08:20:28.847Z,89.51
2023-02-03T08:22:30.535Z,90.09
2023-02-03T08:24:32.010Z,89.50
2023-02-03T08:26:33.479Z,89.89
2023-02-03T08:28:35.159Z,89.09
2023-02-03T08:30:36.673Z,89.71
2023-02-03T08:32:38.163Z,89.78
2023-02-03T08:34:40.059Z,89.39
2023-02-03T08:36:41.613Z,89.78
2023-02-03T08:38:44.539Z,89.74
2023-02-03T08:40:45.998Z,89.32
2023-02-03T08:42:47.469Z,89.43
2023-02-03T08:44:49.323Z,89.72
2023-02-03T08:46:52.090Z,89.41
2023-02-03T08:48:56.427Z,88.69
2023-02-03T08:50:58.545Z,88.91
2023-02-03T08:53:00.017Z,88.45
2023-02-03T08:55:01.780Z,89.05
2023-02-03T08:57:03.597Z,88.88
2023-02-03T08:59:05.048Z,88.86
2023-02-03T09:01:08.920Z,88.27
2023-02-03T09:03:10.616Z,88.50
2023-02-03T09:05:12.553Z,88.52
2023-02-03T09:07:14.258Z,88.05
2023-02-03T09:09:15.768Z,88.52
2023-02-03T09:11:18.701Z,88.29
2023-02-03T09:13:20.166Z,88.79
2023-02-03T09:15:21.682Z,90.81
2023-02-03T09:17:23.139Z,90.55
2023-02-03T09:19:24.740Z,85.49
2023-02-03T09:21:34.468Z,82.08
2023-02-03T09:23:40.187Z,82.36
2023-02-03T09:25:43.726Z,83.04
2023-02-03T09:27:47.459Z,83.24
2023-02-03T09:29:48.947Z,83.49
2023-02-03T09:31:53.750Z,84.12
2023-02-03T09:33:55.341Z,83.33
2023-02-03T09:35:57.604Z,82.60
2023-02-03T09:38:00.753Z,80.79
2023-02-03T09:40:02.547Z,78.66
2023-02-03T09:42:17.602Z,77.92
2023-02-03T09:44:37.719Z,79.35
2023-02-03T09:46:44.101Z,77.97
2023-02-03T09:48:54.838Z,77.62
2023-02-03T09:50:56.528Z,78.26
2023-02-03T09:52:58.930Z,77.71
2023-02-03T09:55:28.106Z,78.22
2023-02-03T09:57:42.823Z,77.85
2023-02-03T09:59:44.294Z,77.90
2023-02-03T10:02:30.291Z,79.60
2023-02-03T10:04:39.848Z,78.89
2023-02-03T10:06:45.697Z,78.92
2023-02-03T10:08:50.324Z,79.14
2023-02-03T10:11:11.153Z,79.28
2023-02-03T10:13:24.926Z,80.34
2023-02-03T10:15:40.796Z,79.19
2023-02-03T10:17:53.046Z,79.04
2023-02-03T10:20:09.721Z,79.21
2023-02-03T10:22:20.162Z,79.76
2023-02-03T10:24:44.791Z,79.84
2023-02-03T10:26:46.906Z,80.22
2023-02-03T10:28:55.983Z,79.63
2023-02-03T10:30:59.960Z,81.63
2023-02-03T10:33:10.285Z,80.09
2023-02-03T10:35:13.140Z,80.21
2023-02-03T10:37:33.739Z,79.97
2023-02-03T10:39:44.016Z,79.41
2023-02-03T10:41:45.866Z,79.00
2023-02-03T10:43:51.688Z,77.68
2023-02-03T10:45:53.378Z,77.61
2023-02-03T10:47:56.183Z,77.15
2023-02-03T10:49:58.758Z,77.66
2023-02-03T10:52:04.982Z,75.32
2023-02-03T10:54:27.754Z,76.22
2023-02-03T10:56:37.906Z,75.18
2023-02-03T10:58:46.395Z,74.05
2023-02-03T11:00:55.111Z,73.64
2023-02-03T11:02:58.861Z,73.96
2023-02-03T11:05:19.474Z,72.77
2023-02-03T11:07:26.919Z,73.30
2023-02-03T11:09:43.004Z,72.83
2023-02-03T11:11:44.496Z,73.40
2023-02-03T11:13:46.113Z,73.78
2023-02-03T11:15:47.631Z,72.78
2023-02-03T11:17:49.155Z,73.21
2023-02-03T11:19:53.116Z,71.77
2023-02-03T11:21:56.838Z,75.88
2023-02-03T11:24:13.160Z,69.73
2023-02-03T11:26:19.084Z,71.16
2023-02-03T11:28:22.047Z,71.00
2023-02-03T11:30:28.117Z,72.34
2023-02-03T11:32:36.804Z,71.22
2023-02-03T11:34:39.557Z,69.25
2023-02-03T11:36:41.366Z,68.60
2023-02-03T11:38:44.683Z,69.22
2023-02-03T11:40:46.230Z,67.83
2023-02-03T11:42:50.423Z,67.89
2023-02-03T11:44:53.162Z,68.90
2023-02-03T11:47:16.795Z,68.22
2023-02-03T11:49:52.187Z,69.34
2023-02-03T11:52:06.292Z,68.83
2023-02-03T11:54:28.772Z,66.99
2023-02-03T11:56:52.158Z,71.53
2023-02-03T11:59:11.649Z,69.93
2023-02-03T12:01:15.991Z,68.32
2023-02-03T12:03:39.640Z,67.06
2023-02-03T12:06:16.677Z,67.07
2023-02-03T12:08:50.609Z,66.20
2023-02-03T12:10:52.007Z,68.52
2023-02-03T12:13:39.926Z,68.13
2023-02-03T12:16:02.856Z,66.50
2023-02-03T12:18:32.524Z,69.95
2023-02-03T12:20:52.864Z,67.16
2023-02-03T12:23:09.050Z,71.44
2023-02-03T12:25:38.423Z,71.31
2023-02-03T12:27:55.912Z,67.86
2023-02-03T12:30:02.697Z,69.73
2023-02-03T12:32:29.199Z,67.02
2023-02-03T12:34:38.105Z,65.38
2023-02-03T12:36:45.069Z,65.19
2023-02-03T12:38:58.294Z,64.24
2023-02-03T12:41:01.315Z,64.93
2023-02-03T12:43:27.387Z,64.25
2023-02-03T12:45:32.168Z,64.42
2023-02-03T12:47:44.559Z,65.56
2023-02-03T12:49:52.985Z,64.90
2023-02-03T12:52:17.265Z,66.57
2023-02-03T12:54:24.391Z,66.67
2023-02-03T12:56:31.832Z,64.18
2023-02-03T12:58:40.253Z,66.74
2023-02-03T13:00:54.856Z,65.04
2023-02-03T13:03:07.244Z,65.53
2023-02-03T13:05:22.319Z,67.79
2023-02-03T13:07:37.137Z,65.52
2023-02-03T13:10:03.670Z,65.59
2023-02-03T13:12:24.059Z,67.47
2023-02-03T13:14:35.301Z,64.54
2023-02-03T13:16:42.512Z,64.28
2023-02-03T13:18:49.952Z,63.46
2023-02-03T13:20:51.550Z,63.61
2023-02-03T13:22:53.347Z,66.41
2023-02-03T13:25:09.350Z,65.73
2023-02-03T13:27:34.222Z,65.95
2023-02-03T13:29:44.949Z,65.26
2023-02-03T13:31:46.483Z,67.15
2023-02-03T13:33:55.605Z,66.04
2023-02-03T13:36:32.337Z,65.72
2023-02-03T13:39:07.170Z,67.08
2023-02-03T13:41:18.731Z,67.40
2023-02-03T13:43:38.286Z,67.86
2023-02-03T13:45:45.192Z,70.13
2023-02-03T13:47:51.521Z,67.11
2023-02-03T13:49:59.873Z,67.65
2023-02-03T13:52:01.670Z,66.80
2023-02-03T13:54:12.988Z,68.22
2023-02-03T13:56:25.094Z,67.61
2023-02-03T13:58:32.989Z,67.42
2023-02-03T14:00:43.686Z,67.67
2023-02-03T14:02:53.571Z,68.48
2023-02-03T14:04:57.980Z,68.50
2023-02-03T14:07:02.172Z,67.66
2023-02-03T14:09:20.413Z,68.00
2023-02-03T14:11:37.821Z,68.73
2023-02-03T14:13:39.380Z,68.62
2023-02-03T14:15:42.057Z,68.71
2023-02-03T14:17:43.449Z,67.91
2023-02-03T14:19:50.739Z,68.29
2023-02-03T14:21:59.530Z,68.92
2023-02-03T14:24:07.588Z,70.30
2023-02-03T14:26:19.148Z,70.01
2023-02-03T14:28:25.630Z,68.06
2023-02-03T14:30:27.484Z,69.02
2023-02-03T14:32:54.085Z,69.42
2023-02-03T14:34:55.608Z,67.95
2023-02-03T14:37:08.979Z,70.98
2023-02-03T14:39:20.021Z,69.04
2023-02-03T14:41:49.126Z,68.43
2023-02-03T14:44:06.931Z,69.49
2023-02-03T14:46:35.972Z,69.22
2023-02-03T14:48:46.385Z,72.63
2023-02-03T14:51:11.978Z,70.92
2023-02-03T14:53:22.371Z,73.25
2023-02-03T14:55:50.050Z,70.57
2023-02-03T14:57:55.573Z,71.02
2023-02-03T15:00:25.209Z,70.97
2023-02-03T15:02:31.064Z,71.99
2023-02-03T15:04:32.645Z,69.37
2023-02-03T15:06:43.294Z,72.89
2023-02-03T15:08:47.580Z,71.58
2023-02-03T15:10:49.040Z,70.72
2023-02-03T15:12:54.061Z,70.17
2023-02-03T15:15:22.668Z,71.58
2023-02-03T15:17:26.456Z,70.79
2023-02-03T15:19:33.249Z,70.62
2023-02-03T15:21:41.524Z,69.96
2023-02-03T15:23:48.057Z,72.11
2023-02-03T15:25:59.667Z,70.96
2023-02-03T15:28:12.056Z,72.04
2023-02-03T15:30:16.487Z,70.13
2023-02-03T15:32:29.470Z,72.19
2023-02-03T15:34:43.447Z,71.17
2023-02-03T15:36:50.649Z,70.99
2023-02-03T15:39:00.745Z,71.26
2023-02-03T15:41:04.124Z,73.23
2023-02-03T15:43:17.096Z,70.71
2023-02-03T15:45:24.143Z,74.71
2023-02-03T15:47:35.883Z,73.68
2023-02-03T15:49:41.762Z,71.86
2023-02-03T15:52:00.879Z,71.62
2023-02-03T15:54:10.311Z,72.78
2023-02-03T15:56:20.047Z,72.08
2023-02-03T15:58:25.985Z,71.87
2023-02-03T16:00:30.081Z,73.11
2023-02-03T16:02:39.087Z,73.23
2023-02-03T16:04:40.777Z,72.87
2023-02-03T16:06:47.195Z,72.66
2023-02-03T16:08:51.500Z,72.93
2023-02-03T16:10:53.042Z,72.55
2023-02-03T16:12:55.111Z,73.22
2023-02-03T16:14:58.522Z,72.42
2023-02-03T16:17:05.375Z,73.18
2023-02-03T16:19:22.014Z,73.01
2023-02-03T16:21:32.440Z,74.59
2023-02-03T16:23:33.923Z,73.06
2023-02-03T16:25:35.963Z,74.73
2023-02-03T16:27:37.453Z,73.38
2023-02-03T16:29:57.603Z,73.64
2023-02-03T16:32:18.287Z,74.48
2023-02-03T16:34:38.017Z,72.93
2023-02-03T16:37:00.106Z,75.97
2023-02-03T16:39:21.800Z,73.09
2023-02-03T16:41:41.858Z,73.35
2023-02-03T16:44:01.735Z,73.66
2023-02-03T16:46:21.781Z,72.53
2023-02-03T16:48:41.690Z,72.11
2023-02-03T16:50:59.291Z,72.10
2023-02-03T16:53:01.197Z,72.56
2023-02-03T16:55:02.648Z,73.32
2023-02-03T16:57:04.216Z,72.82
2023-02-03T16:59:05.884Z,74.67
2023-02-03T17:01:09.527Z,75.12
2023-02-03T17:03:20.186Z,73.79
2023-02-03T17:05:21.689Z,73.78
2023-02-03T17:07:23.210Z,76.30
2023-02-03T17:09:25.091Z,74.86
2023-02-03T17:11:26.997Z,74.45
2023-02-03T17:13:28.570Z,74.54
2023-02-03T17:15:30.355Z,74.57
2023-02-03T17:17:32.221Z,75.14
2023-02-03T17:19:33.694Z,76.02
2023-02-03T17:21:35.284Z,77.61
2023-02-03T17:23:37.440Z,76.95
2023-02-03T17:25:39.763Z,75.51
2023-02-03T17:27:41.248Z,75.27
2023-02-03T17:29:42.838Z,75.53
2023-02-03T17:31:44.335Z,74.99
2023-02-03T17:33:46.369Z,76.61
2023-02-03T17:35:47.829Z,75.20
2023-02-03T17:37:49.313Z,74.90
2023-02-03T17:53:48.582Z,79.34
2023-02-03T17:55:50.295Z,80.36
2023-02-03T17:57:52.004Z,81.04
2023-02-03T17:59:55.299Z,81.52
2023-02-03T18:01:56.818Z,81.19
2023-02-03T18:04:04.615Z,83.05
2023-02-03T18:06:07.158Z,81.90
2023-02-03T18:08:16.241Z,81.23
2023-02-03T18:10:18.243Z,81.34
2023-02-03T18:12:19.822Z,80.58
2023-02-03T18:14:21.382Z,80.72
2023-02-03T18:16:26.116Z,81.73
2023-02-03T18:18:28.992Z,81.58
2023-02-03T18:20:30.742Z,80.85
2023-02-03T18:22:33.600Z,80.88
2023-02-03T18:24:35.094Z,81.12
2023-02-03T18:26:46.487Z,81.55
2023-02-03T18:28:51.634Z,81.30
2023-02-03T18:31:03.461Z,82.38
2023-02-03T18:33:04.930Z,82.59
2023-02-03T18:35:11.662Z,84.16
2023-02-03T18:37:13.127Z,84.00
2023-02-03T18:39:15.187Z,84.42
2023-02-03T18:41:18.879Z,84.07
2023-02-03T18:43:21.992Z,84.76
2023-02-03T18:45:23.471Z,84.87
2023-02-03T18:47:24.947Z,85.12
2023-02-03T18:49:26.423Z,84.84
2023-02-03T18:51:28.215Z,85.52
2023-02-03T18:53:31.200Z,85.77
2023-02-03T18:55:32.780Z,85.67
2023-02-03T18:57:34.280Z,85.53
2023-02-03T18:59:35.773Z,85.84
2023-02-03T19:01:39.082Z,85.75
2023-02-03T19:03:40.644Z,85.76
2023-02-03T19:05:42.975Z,85.56
2023-02-03T19:07:44.624Z,85.24
2023-02-03T19:09:46.184Z,85.54
2023-02-03T19:11:47.832Z,84.68
2023-02-03T19:13:49.500Z,84.38
2023-02-03T19:15:51.749Z,84.27
2023-02-03T19:17:53.297Z,83.54
2023-02-03T19:19:54.782Z,83.39
2023-02-03T19:21:56.234Z,83.22
2023-02-03T19:23:57.695Z,82.89
2023-02-03T19:25:59.257Z,83.07
2023-02-03T19:28:01.595Z,83.86
2023-02-03T19:30:04.226Z,83.19
2023-02-03T19:32:08.034Z,83.71
2023-02-03T19:34:09.664Z,84.20
2023-02-03T19:36:11.881Z,83.44
2023-02-03T19:38:13.346Z,83.25
2023-02-03T19:40:15.061Z,82.59
2023-02-03T19:42:16.654Z,82.70
2023-02-03T19:44:18.159Z,83.02
2023-02-03T19:46:23.015Z,82.02
2023-02-03T19:48:24.872Z,82.20
2023-02-03T19:50:26.379Z,82.58
2023-02-03T19:52:27.819Z,82.56
2023-02-03T19:54:29.309Z,82.08
2023-02-03T19:56:30.841Z,82.76
2023-02-03T19:58:32.340Z,81.28
2023-02-03T20:00:35.367Z,81.87
2023-02-03T20:02:38.099Z,81.57
2023-02-03T20:04:39.739Z,81.72
2023-02-03T20:06:41.411Z,81.59
2023-02-03T20:08:43.434Z,82.44
2023-02-03T20:10:45.450Z,83.61
2023-02-03T20:12:47.249Z,82.20
2023-02-03T20:14:48.943Z,82.18
2023-02-03T20:16:51.136Z,82.24
2023-02-03T20:18:52.652Z,81.97
2023-02-03T20:20:56.383Z,81.89
2023-02-03T20:22:57.895Z,82.82
2023-02-03T20:24:59.687Z,81.61
2023-02-03T20:27:01.192Z,81.63
2023-02-03T20:29:02.693Z,81.86
2023-02-03T20:31:04.474Z,82.37
2023-02-03T20:33:06.125Z,81.80
2023-02-03T20:35:08.643Z,81.99
2023-02-03T20:37:10.117Z,82.56
2023-02-03T20:39:18.616Z,82.85
2023-02-03T20:41:20.221Z,83.12
2023-02-03T20:43:23.884Z,83.04
2023-02-03T20:45:25.461Z,83.07
2023-02-03T20:47:27.040Z,82.81
2023-02-03T20:49:28.494Z,83.24
2023-02-03T20:51:30.110Z,83.37
2023-02-03T20:53:31.561Z,83.52
2023-02-03T20:55:36.687Z,82.25
2023-02-03T20:57:38.245Z,81.99
2023-02-03T20:59:39.791Z,83.28
2023-02-03T21:01:41.764Z,82.85
2023-02-03T21:04:02.076Z,82.66
2023-02-03T21:06:13.309Z,82.68
2023-02-03T21:08:16.598Z,82.80
2023-02-03T21:10:20.860Z,83.80
2023-02-03T21:12:22.362Z,84.40
2023-02-03T21:14:28.702Z,83.80
2023-02-03T21:16:39.267Z,84.14
2023-02-03T21:18:54.217Z,84.18
2023-02-03T21:20:56.090Z,84.78
2023-02-03T21:22:58.320Z,84.56
2023-02-03T21:25:03.128Z,84.64
2023-02-03T21:27:27.700Z,84.65
2023-02-03T21:29:33.533Z,85.07
2023-02-03T21:31:37.137Z,85.34
2023-02-03T21:33:41.933Z,86.05
2023-02-03T21:35:43.467Z,85.69
2023-02-03T21:37:44.993Z,86.26
2023-02-03T21:39:47.848Z,86.33
2023-02-03T21:41:49.507Z,86.22
2023-02-03T21:43:57.114Z,86.68
2023-02-03T21:45:58.662Z,86.70
2023-02-03T21:48:00.527Z,86.92
2023-02-03T21:50:02.354Z,87.18
2023-02-03T21:52:03.957Z,87.29
2023-02-03T21:54:27.851Z,87.27
2023-02-03T21:56:38.292Z,87.34
2023-02-03T21:58:39.788Z,87.65
2023-02-03T22:00:48.002Z,87.23
2023-02-03T22:02:59.768Z,87.64
2023-02-03T22:05:03.359Z,87.39
2023-02-03T22:07:14.931Z,87.33
2023-02-03T22:09:19.477Z,86.73
2023-02-03T22:11:23.042Z,86.94
2023-02-03T22:13:25.520Z,86.96
2023-02-03T22:15:27.005Z,87.02
2023-02-03T22:17:28.460Z,86.85
2023-02-03T22:19:29.909Z,86.82
2023-02-03T22:21:31.402Z,87.04
2023-02-03T22:23:33.650Z,87.25
2023-02-03T22:25:35.104Z,86.65
2023-02-03T22:27:36.596Z,86.74
2023-02-03T22:29:38.071Z,87.21
2023-02-03T22:31:40.754Z,87.98
2023-02-03T22:33:42.935Z,88.53
2023-02-03T22:35:45.017Z,89.11
2023-02-03T22:37:46.618Z,89.44
2023-02-03T22:39:48.093Z,89.92
2023-02-03T22:41:49.618Z,90.12
2023-02-03T22:43:51.069Z,89.75
2023-02-03T22:45:53.162Z,89.92
2023-02-03T22:47:56.512Z,90.68
2023-02-03T22:49:57.977Z,90.47
2023-02-03T22:51:59.433Z,91.09
2023-02-03T22:54:00.866Z,90.18
2023-02-03T22:56:02.399Z,90.66
2023-02-03T22:58:04.782Z,90.69
2023-02-03T23:00:11.700Z,90.90
2023-02-03T23:02:13.205Z,91.32
2023-02-03T23:04:14.863Z,91.03
2023-02-03T23:06:16.319Z,91.34
2023-02-03T23:08:17.793Z,91.44
2023-02-03T23:10:23.395Z,91.99
2023-02-03T23:12:24.935Z,91.98
2023-02-03T23:14:26.524Z,91.68
2023-02-03T23:16:28.065Z,91.69
2023-02-03T23:18:29.493Z,91.23
2023-02-03T23:20:31.543Z,91.68
2023-02-03T23:22:33.237Z,92.32
2023-02-03T23:24:34.796Z,91.32
2023-02-03T23:26:36.359Z,91.85
2023-02-03T23:28:37.830Z,91.78
2023-02-03T23:30:39.346Z,92.12
2023-02-03T23:32:40.981Z,91.82
2023-02-03T23:35:00.912Z,91.59
2023-02-03T23:37:02.471Z,91.72
2023-02-03T23:39:03.981Z,91.83
2023-02-03T23:41:05.510Z,90.81
2023-02-03T23:43:07.235Z,91.63
2023-02-03T23:45:11.796Z,91.35
2023-02-03T23:47:13.405Z,91.35
2023-02-03T23:49:14.878Z,91.14
2023-02-03T23:51:16.349Z,90.24
2023-02-03T23:53:17.825Z,90.77
2023-02-03T23:55:21.036Z,90.90
2023-02-03T23:57:22.502Z,91.10
2023-02-03T23:59:24.602Z,91.06
